sensor_id;sensor_type;location;lat;lon;timestamp;P1;durP1;ratioP1;P2;durP2;ratioP2
36423;SDS011;22458;45.328;9.514;2023-04-03T00:00:11;6.07;;;4.68;;
36423;SDS011;22458;45.328;9.514;2023-04-03T00:02:38;6.47;;;4.43;;
36423;SDS011;22458;45.328;9.514;2023-04-03T00:05:05;6.07;;;4.93;;
36423;SDS011;22458;45.328;9.514;2023-04-03T00:07:31;5.68;;;4.40;;
36423;SDS011;22458;45.328;9.514;2023-04-03T00:09:57;5.65;;;5.07;;
36423;SDS011;22458;45.328;9.514;2023-04-03T00:12:23;7.00;;;4.80;;
36423;SDS011;22458;45.328;9.514;2023-04-03T00:14:49;7.55;;;5.65;;
36423;SDS011;22458;45.328;9.514;2023-04-03T00:17:15;6.82;;;4.90;;
36423;SDS011;22458;45.328;9.514;2023-04-03T00:19:40;7.03;;;5.97;;
36423;SDS011;22458;45.328;9.514;2023-04-03T00:22:06;7.43;;;6.50;;
36423;SDS011;22458;45.328;9.514;2023-04-03T00:24:32;7.53;;;5.30;;
36423;SDS011;22458;45.328;9.514;2023-04-03T00:26:57;7.72;;;6.00;;
36423;SDS011;22458;45.328;9.514;2023-04-03T00:29:24;6.25;;;5.43;;
36423;SDS011;22458;45.328;9.514;2023-04-03T00:31:50;6.90;;;5.68;;
36423;SDS011;22458;45.328;9.514;2023-04-03T00:34:15;5.75;;;5.15;;
36423;SDS011;22458;45.328;9.514;2023-04-03T00:36:44;6.07;;;5.05;;
36423;SDS011;22458;45.328;9.514;2023-04-03T00:39:10;7.03;;;5.07;;
36423;SDS011;22458;45.328;9.514;2023-04-03T00:41:36;7.00;;;5.28;;
36423;SDS011;22458;45.328;9.514;2023-04-03T00:44:18;5.65;;;4.90;;
36423;SDS011;22458;45.328;9.514;2023-04-03T00:46:45;5.68;;;5.13;;
36423;SDS011;22458;45.328;9.514;2023-04-03T00:49:10;6.85;;;4.90;;
36423;SDS011;22458;45.328;9.514;2023-04-03T00:51:36;6.53;;;5.07;;
36423;SDS011;22458;45.328;9.514;2023-04-03T00:54:02;6.72;;;5.15;;
36423;SDS011;22458;45.328;9.514;2023-04-03T00:59:02;5.85;;;4.82;;
36423;SDS011;22458;45.328;9.514;2023-04-03T01:01:31;5.15;;;4.65;;
36423;SDS011;22458;45.328;9.514;2023-04-03T01:04:01;6.50;;;4.03;;
36423;SDS011;22458;45.328;9.514;2023-04-03T01:06:29;6.55;;;5.03;;
36423;SDS011;22458;45.328;9.514;2023-04-03T01:09:04;6.05;;;5.45;;
36423;SDS011;22458;45.328;9.514;2023-04-03T01:11:30;9.75;;;5.72;;
36423;SDS011;22458;45.328;9.514;2023-04-03T01:13:56;7.20;;;5.75;;
36423;SDS011;22458;45.328;9.514;2023-04-03T01:16:23;5.63;;;4.78;;
36423;SDS011;22458;45.328;9.514;2023-04-03T01:18:49;7.18;;;5.28;;
36423;SDS011;22458;45.328;9.514;2023-04-03T01:26:49;8.63;;;5.95;;
36423;SDS011;22458;45.328;9.514;2023-04-03T01:29:15;6.80;;;6.10;;
36423;SDS011;22458;45.328;9.514;2023-04-03T01:31:52;9.25;;;5.53;;
36423;SDS011;22458;45.328;9.514;2023-04-03T01:34:20;7.25;;;5.97;;
36423;SDS011;22458;45.328;9.514;2023-04-03T01:36:48;6.63;;;5.47;;
36423;SDS011;22458;45.328;9.514;2023-04-03T01:39:13;6.10;;;5.50;;
36423;SDS011;22458;45.328;9.514;2023-04-03T01:41:39;8.40;;;6.00;;
36423;SDS011;22458;45.328;9.514;2023-04-03T01:44:17;8.20;;;6.00;;
36423;SDS011;22458;45.328;9.514;2023-04-03T01:46:44;6.28;;;5.60;;
36423;SDS011;22458;45.328;9.514;2023-04-03T01:49:09;7.45;;;5.82;;
36423;SDS011;22458;45.328;9.514;2023-04-03T01:51:35;7.50;;;5.43;;
36423;SDS011;22458;45.328;9.514;2023-04-03T01:54:01;6.43;;;5.65;;
36423;SDS011;22458;45.328;9.514;2023-04-03T01:56:27;6.25;;;5.45;;
36423;SDS011;22458;45.328;9.514;2023-04-03T01:58:54;7.50;;;5.22;;
36423;SDS011;22458;45.328;9.514;2023-04-03T02:01:19;7.32;;;5.90;;
36423;SDS011;22458;45.328;9.514;2023-04-03T02:03:46;7.35;;;6.22;;
36423;SDS011;22458;45.328;9.514;2023-04-03T02:06:12;8.32;;;5.75;;
36423;SDS011;22458;45.328;9.514;2023-04-03T02:08:38;9.15;;;5.50;;
36423;SDS011;22458;45.328;9.514;2023-04-03T02:11:05;8.73;;;6.40;;
36423;SDS011;22458;45.328;9.514;2023-04-03T02:13:32;8.88;;;6.60;;
36423;SDS011;22458;45.328;9.514;2023-04-03T02:15:58;6.78;;;5.82;;
36423;SDS011;22458;45.328;9.514;2023-04-03T02:18:24;6.25;;;5.65;;
36423;SDS011;22458;45.328;9.514;2023-04-03T02:20:50;7.38;;;5.57;;
36423;SDS011;22458;45.328;9.514;2023-04-03T02:23:16;8.30;;;6.55;;
36423;SDS011;22458;45.328;9.514;2023-04-03T02:25:42;15.77;;;6.65;;
36423;SDS011;22458;45.328;9.514;2023-04-03T02:28:08;8.43;;;6.43;;
36423;SDS011;22458;45.328;9.514;2023-04-03T02:30:34;7.75;;;6.07;;
36423;SDS011;22458;45.328;9.514;2023-04-03T02:33:00;11.20;;;6.93;;
36423;SDS011;22458;45.328;9.514;2023-04-03T02:35:26;8.13;;;6.45;;
36423;SDS011;22458;45.328;9.514;2023-04-03T02:37:54;9.13;;;6.65;;
36423;SDS011;22458;45.328;9.514;2023-04-03T02:40:21;8.18;;;6.80;;
36423;SDS011;22458;45.328;9.514;2023-04-03T02:42:47;7.65;;;5.65;;
36423;SDS011;22458;45.328;9.514;2023-04-03T02:45:12;6.97;;;5.35;;
36423;SDS011;22458;45.328;9.514;2023-04-03T02:47:38;4.80;;;4.28;;
36423;SDS011;22458;45.328;9.514;2023-04-03T02:50:04;6.32;;;5.55;;
36423;SDS011;22458;45.328;9.514;2023-04-03T02:52:31;6.28;;;5.68;;
36423;SDS011;22458;45.328;9.514;2023-04-03T02:54:57;6.43;;;5.82;;
36423;SDS011;22458;45.328;9.514;2023-04-03T02:57:23;7.55;;;5.53;;
36423;SDS011;22458;45.328;9.514;2023-04-03T02:59:49;8.02;;;5.93;;
36423;SDS011;22458;45.328;9.514;2023-04-03T03:02:15;6.65;;;5.88;;
36423;SDS011;22458;45.328;9.514;2023-04-03T03:04:40;9.07;;;6.72;;
36423;SDS011;22458;45.328;9.514;2023-04-03T03:07:06;7.70;;;6.18;;
36423;SDS011;22458;45.328;9.514;2023-04-03T03:09:32;6.90;;;6.13;;
36423;SDS011;22458;45.328;9.514;2023-04-03T03:11:58;8.73;;;6.55;;
36423;SDS011;22458;45.328;9.514;2023-04-03T03:14:23;7.47;;;6.20;;
36423;SDS011;22458;45.328;9.514;2023-04-03T03:16:49;6.82;;;6.13;;
36423;SDS011;22458;45.328;9.514;2023-04-03T03:19:15;7.05;;;5.75;;
36423;SDS011;22458;45.328;9.514;2023-04-03T03:21:41;7.00;;;5.90;;
36423;SDS011;22458;45.328;9.514;2023-04-03T03:24:07;9.93;;;6.10;;
36423;SDS011;22458;45.328;9.514;2023-04-03T03:26:33;7.57;;;6.10;;
36423;SDS011;22458;45.328;9.514;2023-04-03T03:29:01;7.05;;;6.35;;
36423;SDS011;22458;45.328;9.514;2023-04-03T03:31:27;6.60;;;5.75;;
36423;SDS011;22458;45.328;9.514;2023-04-03T03:33:53;7.30;;;5.18;;
36423;SDS011;22458;45.328;9.514;2023-04-03T03:36:20;6.60;;;5.15;;
36423;SDS011;22458;45.328;9.514;2023-04-03T03:38:46;7.32;;;5.78;;
36423;SDS011;22458;45.328;9.514;2023-04-03T03:41:12;12.20;;;8.43;;
36423;SDS011;22458;45.328;9.514;2023-04-03T03:43:39;8.82;;;6.10;;
36423;SDS011;22458;45.328;9.514;2023-04-03T03:46:06;6.78;;;5.85;;
36423;SDS011;22458;45.328;9.514;2023-04-03T03:48:32;6.47;;;5.38;;
36423;SDS011;22458;45.328;9.514;2023-04-03T03:50:58;6.93;;;5.95;;
36423;SDS011;22458;45.328;9.514;2023-04-03T03:53:28;7.57;;;5.63;;
36423;SDS011;22458;45.328;9.514;2023-04-03T03:55:58;6.63;;;5.78;;
36423;SDS011;22458;45.328;9.514;2023-04-03T03:58:26;6.22;;;5.25;;
36423;SDS011;22458;45.328;9.514;2023-04-03T04:00:52;8.77;;;6.00;;
36423;SDS011;22458;45.328;9.514;2023-04-03T04:03:17;6.72;;;5.28;;
36423;SDS011;22458;45.328;9.514;2023-04-03T04:05:46;6.27;;;5.20;;
36423;SDS011;22458;45.328;9.514;2023-04-03T04:08:12;6.95;;;5.38;;
36423;SDS011;22458;45.328;9.514;2023-04-03T04:10:38;9.05;;;5.90;;
36423;SDS011;22458;45.328;9.514;2023-04-03T04:13:05;9.80;;;7.07;;
36423;SDS011;22458;45.328;9.514;2023-04-03T04:15:31;13.27;;;9.18;;
36423;SDS011;22458;45.328;9.514;2023-04-03T04:17:57;6.68;;;6.00;;
36423;SDS011;22458;45.328;9.514;2023-04-03T04:20:23;6.47;;;5.40;;
36423;SDS011;22458;45.328;9.514;2023-04-03T04:22:49;6.75;;;4.95;;
36423;SDS011;22458;45.328;9.514;2023-04-03T04:25:16;6.20;;;5.18;;
36423;SDS011;22458;45.328;9.514;2023-04-03T04:27:42;6.55;;;5.50;;
36423;SDS011;22458;45.328;9.514;2023-04-03T04:30:08;4.93;;;4.43;;
36423;SDS011;22458;45.328;9.514;2023-04-03T04:32:36;6.85;;;5.80;;
36423;SDS011;22458;45.328;9.514;2023-04-03T04:35:02;6.97;;;5.85;;
36423;SDS011;22458;45.328;9.514;2023-04-03T04:37:31;6.68;;;5.70;;
36423;SDS011;22458;45.328;9.514;2023-04-03T04:39:57;6.65;;;5.53;;
36423;SDS011;22458;45.328;9.514;2023-04-03T04:42:23;7.75;;;5.75;;
36423;SDS011;22458;45.328;9.514;2023-04-03T04:44:49;7.10;;;6.00;;
36423;SDS011;22458;45.328;9.514;2023-04-03T04:47:15;6.63;;;5.80;;
36423;SDS011;22458;45.328;9.514;2023-04-03T04:49:42;6.75;;;5.82;;
36423;SDS011;22458;45.328;9.514;2023-04-03T04:52:09;7.13;;;6.05;;
36423;SDS011;22458;45.328;9.514;2023-04-03T04:54:35;7.40;;;5.95;;
36423;SDS011;22458;45.328;9.514;2023-04-03T04:57:01;8.18;;;6.03;;
36423;SDS011;22458;45.328;9.514;2023-04-03T04:59:29;7.65;;;6.28;;
36423;SDS011;22458;45.328;9.514;2023-04-03T05:01:56;6.45;;;5.22;;
36423;SDS011;22458;45.328;9.514;2023-04-03T05:04:22;8.65;;;5.55;;
36423;SDS011;22458;45.328;9.514;2023-04-03T05:06:53;6.82;;;5.30;;
36423;SDS011;22458;45.328;9.514;2023-04-03T05:09:23;8.02;;;5.93;;
36423;SDS011;22458;45.328;9.514;2023-04-03T05:11:50;7.40;;;5.50;;
36423;SDS011;22458;45.328;9.514;2023-04-03T05:14:18;10.38;;;6.50;;
36423;SDS011;22458;45.328;9.514;2023-04-03T05:16:45;7.07;;;6.13;;
36423;SDS011;22458;45.328;9.514;2023-04-03T05:19:11;7.18;;;6.40;;
36423;SDS011;22458;45.328;9.514;2023-04-03T05:21:39;7.95;;;6.20;;
36423;SDS011;22458;45.328;9.514;2023-04-03T05:24:11;7.60;;;6.28;;
36423;SDS011;22458;45.328;9.514;2023-04-03T05:26:40;8.10;;;6.63;;
36423;SDS011;22458;45.328;9.514;2023-04-03T05:29:07;8.40;;;5.72;;
36423;SDS011;22458;45.328;9.514;2023-04-03T05:31:33;13.25;;;7.57;;
36423;SDS011;22458;45.328;9.514;2023-04-03T05:33:59;9.90;;;6.82;;
36423;SDS011;22458;45.328;9.514;2023-04-03T05:36:28;9.10;;;7.57;;
36423;SDS011;22458;45.328;9.514;2023-04-03T05:38:59;11.38;;;6.22;;
36423;SDS011;22458;45.328;9.514;2023-04-03T05:41:25;8.70;;;6.80;;
36423;SDS011;22458;45.328;9.514;2023-04-03T05:43:51;12.15;;;7.20;;
36423;SDS011;22458;45.328;9.514;2023-04-03T05:46:19;11.85;;;7.43;;
36423;SDS011;22458;45.328;9.514;2023-04-03T05:48:50;8.48;;;6.60;;
36423;SDS011;22458;45.328;9.514;2023-04-03T05:51:22;7.78;;;5.85;;
36423;SDS011;22458;45.328;9.514;2023-04-03T05:54:13;6.93;;;5.78;;
36423;SDS011;22458;45.328;9.514;2023-04-03T05:56:44;11.95;;;6.50;;
36423;SDS011;22458;45.328;9.514;2023-04-03T05:59:10;10.23;;;6.07;;
36423;SDS011;22458;45.328;9.514;2023-04-03T06:01:37;7.95;;;5.93;;
36423;SDS011;22458;45.328;9.514;2023-04-03T06:04:02;11.82;;;6.28;;
36423;SDS011;22458;45.328;9.514;2023-04-03T06:06:45;9.05;;;6.13;;
36423;SDS011;22458;45.328;9.514;2023-04-03T06:09:14;6.13;;;5.53;;
36423;SDS011;22458;45.328;9.514;2023-04-03T06:11:41;8.10;;;6.07;;
36423;SDS011;22458;45.328;9.514;2023-04-03T06:14:07;8.10;;;6.68;;
36423;SDS011;22458;45.328;9.514;2023-04-03T06:16:33;10.07;;;6.95;;
36423;SDS011;22458;45.328;9.514;2023-04-03T06:18:59;7.47;;;6.45;;
36423;SDS011;22458;45.328;9.514;2023-04-03T06:21:26;8.13;;;6.70;;
36423;SDS011;22458;45.328;9.514;2023-04-03T06:23:52;7.88;;;6.18;;
36423;SDS011;22458;45.328;9.514;2023-04-03T06:26:17;7.00;;;6.30;;
36423;SDS011;22458;45.328;9.514;2023-04-03T06:28:43;6.72;;;6.07;;
36423;SDS011;22458;45.328;9.514;2023-04-03T06:31:09;9.25;;;6.43;;
36423;SDS011;22458;45.328;9.514;2023-04-03T06:33:35;9.57;;;6.80;;
36423;SDS011;22458;45.328;9.514;2023-04-03T06:36:03;8.10;;;6.78;;
36423;SDS011;22458;45.328;9.514;2023-04-03T06:38:29;7.90;;;6.70;;
36423;SDS011;22458;45.328;9.514;2023-04-03T06:40:55;6.78;;;6.00;;
36423;SDS011;22458;45.328;9.514;2023-04-03T06:43:22;9.20;;;6.72;;
36423;SDS011;22458;45.328;9.514;2023-04-03T06:45:48;8.43;;;6.35;;
36423;SDS011;22458;45.328;9.514;2023-04-03T06:48:13;8.32;;;6.97;;
36423;SDS011;22458;45.328;9.514;2023-04-03T06:50:39;7.95;;;6.53;;
36423;SDS011;22458;45.328;9.514;2023-04-03T06:53:06;7.13;;;6.43;;
36423;SDS011;22458;45.328;9.514;2023-04-03T06:55:32;8.15;;;6.47;;
36423;SDS011;22458;45.328;9.514;2023-04-03T06:57:58;8.63;;;6.38;;
36423;SDS011;22458;45.328;9.514;2023-04-03T07:00:24;8.52;;;6.72;;
36423;SDS011;22458;45.328;9.514;2023-04-03T07:02:50;8.07;;;6.50;;
36423;SDS011;22458;45.328;9.514;2023-04-03T07:05:16;7.63;;;5.97;;
36423;SDS011;22458;45.328;9.514;2023-04-03T07:07:43;7.53;;;6.38;;
36423;SDS011;22458;45.328;9.514;2023-04-03T07:10:09;9.45;;;6.97;;
36423;SDS011;22458;45.328;9.514;2023-04-03T07:12:36;7.03;;;6.18;;
36423;SDS011;22458;45.328;9.514;2023-04-03T07:15:03;8.27;;;7.43;;
36423;SDS011;22458;45.328;9.514;2023-04-03T07:17:30;7.20;;;5.88;;
36423;SDS011;22458;45.328;9.514;2023-04-03T07:19:56;7.97;;;6.10;;
36423;SDS011;22458;45.328;9.514;2023-04-03T07:22:22;6.90;;;6.18;;
36423;SDS011;22458;45.328;9.514;2023-04-03T07:24:48;7.45;;;6.65;;
36423;SDS011;22458;45.328;9.514;2023-04-03T07:27:14;8.77;;;7.07;;
36423;SDS011;22458;45.328;9.514;2023-04-03T07:29:40;7.30;;;6.57;;
36423;SDS011;22458;45.328;9.514;2023-04-03T07:32:06;11.00;;;7.70;;
36423;SDS011;22458;45.328;9.514;2023-04-03T07:34:32;7.72;;;6.90;;
36423;SDS011;22458;45.328;9.514;2023-04-03T07:36:58;8.25;;;6.70;;
36423;SDS011;22458;45.328;9.514;2023-04-03T07:39:25;6.70;;;5.90;;
36423;SDS011;22458;45.328;9.514;2023-04-03T07:41:51;6.75;;;6.05;;
36423;SDS011;22458;45.328;9.514;2023-04-03T07:44:17;9.80;;;6.53;;
36423;SDS011;22458;45.328;9.514;2023-04-03T07:46:43;7.70;;;6.40;;
36423;SDS011;22458;45.328;9.514;2023-04-03T07:49:09;8.05;;;6.53;;
36423;SDS011;22458;45.328;9.514;2023-04-03T07:51:37;10.50;;;6.57;;
36423;SDS011;22458;45.328;9.514;2023-04-03T07:54:02;6.93;;;6.22;;
36423;SDS011;22458;45.328;9.514;2023-04-03T07:56:29;8.40;;;6.72;;
36423;SDS011;22458;45.328;9.514;2023-04-03T07:58:54;6.78;;;5.40;;
36423;SDS011;22458;45.328;9.514;2023-04-03T08:01:20;8.32;;;6.30;;
36423;SDS011;22458;45.328;9.514;2023-04-03T08:03:46;5.90;;;4.90;;
36423;SDS011;22458;45.328;9.514;2023-04-03T08:06:12;5.32;;;4.72;;
36423;SDS011;22458;45.328;9.514;2023-04-03T08:08:40;5.38;;;4.88;;
36423;SDS011;22458;45.328;9.514;2023-04-03T08:11:06;5.43;;;4.35;;
36423;SDS011;22458;45.328;9.514;2023-04-03T08:13:33;6.10;;;4.50;;
36423;SDS011;22458;45.328;9.514;2023-04-03T08:16:33;4.90;;;4.03;;
36423;SDS011;22458;45.328;9.514;2023-04-03T08:18:52;6.47;;;4.70;;
36423;SDS011;22458;45.328;9.514;2023-04-03T08:21:18;6.82;;;4.05;;
36423;SDS011;22458;45.328;9.514;2023-04-03T08:23:47;8.40;;;4.70;;
36423;SDS011;22458;45.328;9.514;2023-04-03T08:26:17;10.65;;;8.40;;
36423;SDS011;22458;45.328;9.514;2023-04-03T08:28:46;14.93;;;11.43;;
36423;SDS011;22458;45.328;9.514;2023-04-03T08:31:15;9.90;;;6.53;;
36423;SDS011;22458;45.328;9.514;2023-04-03T08:33:42;7.65;;;6.22;;
36423;SDS011;22458;45.328;9.514;2023-04-03T08:36:15;9.63;;;6.15;;
36423;SDS011;22458;45.328;9.514;2023-04-03T08:38:52;4.78;;;4.28;;
36423;SDS011;22458;45.328;9.514;2023-04-03T08:46:51;5.10;;;4.00;;
36423;SDS011;22458;45.328;9.514;2023-04-03T08:49:24;6.43;;;4.03;;
36423;SDS011;22458;45.328;9.514;2023-04-03T08:52:09;5.50;;;3.80;;
36423;SDS011;22458;45.328;9.514;2023-04-03T08:54:48;4.95;;;4.10;;
36423;SDS011;22458;45.328;9.514;2023-04-03T08:57:17;4.15;;;3.35;;
36423;SDS011;22458;45.328;9.514;2023-04-03T08:59:49;5.82;;;3.28;;
36423;SDS011;22458;45.328;9.514;2023-04-03T09:02:40;4.25;;;3.30;;
36423;SDS011;22458;45.328;9.514;2023-04-03T09:05:14;3.60;;;2.95;;
36423;SDS011;22458;45.328;9.514;2023-04-03T09:07:47;7.82;;;3.15;;
36423;SDS011;22458;45.328;9.514;2023-04-03T09:10:21;4.03;;;2.60;;
36423;SDS011;22458;45.328;9.514;2023-04-03T09:12:59;3.47;;;2.83;;
36423;SDS011;22458;45.328;9.514;2023-04-03T09:15:38;4.60;;;2.95;;
36423;SDS011;22458;45.328;9.514;2023-04-03T09:18:16;3.95;;;3.05;;
36423;SDS011;22458;45.328;9.514;2023-04-03T09:23:43;7.60;;;2.97;;
36423;SDS011;22458;45.328;9.514;2023-04-03T09:26:23;5.72;;;3.20;;
36423;SDS011;22458;45.328;9.514;2023-04-03T09:28:54;2.90;;;2.60;;
36423;SDS011;22458;45.328;9.514;2023-04-03T09:31:24;4.60;;;2.97;;
36423;SDS011;22458;45.328;9.514;2023-04-03T09:34:25;5.53;;;2.63;;
36423;SDS011;22458;45.328;9.514;2023-04-03T09:36:54;5.45;;;2.50;;
36423;SDS011;22458;45.328;9.514;2023-04-03T09:39:22;6.80;;;2.63;;
36423;SDS011;22458;45.328;9.514;2023-04-03T09:44:24;5.57;;;2.60;;
36423;SDS011;22458;45.328;9.514;2023-04-03T09:46:53;3.78;;;3.00;;
36423;SDS011;22458;45.328;9.514;2023-04-03T09:49:19;3.22;;;2.92;;
36423;SDS011;22458;45.328;9.514;2023-04-03T09:51:45;4.82;;;3.28;;
36423;SDS011;22458;45.328;9.514;2023-04-03T09:54:23;3.20;;;2.83;;
36423;SDS011;22458;45.328;9.514;2023-04-03T09:56:55;4.72;;;2.80;;
36423;SDS011;22458;45.328;9.514;2023-04-03T09:59:31;4.53;;;3.17;;
36423;SDS011;22458;45.328;9.514;2023-04-03T10:02:15;4.32;;;2.95;;
36423;SDS011;22458;45.328;9.514;2023-04-03T10:04:44;4.35;;;3.00;;
36423;SDS011;22458;45.328;9.514;2023-04-03T10:07:31;5.60;;;3.10;;
36423;SDS011;22458;45.328;9.514;2023-04-03T10:09:58;4.10;;;2.47;;
36423;SDS011;22458;45.328;9.514;2023-04-03T10:12:26;3.67;;;1.95;;
36423;SDS011;22458;45.328;9.514;2023-04-03T10:20:01;4.30;;;2.17;;
36423;SDS011;22458;45.328;9.514;2023-04-03T10:22:52;3.50;;;1.88;;
36423;SDS011;22458;45.328;9.514;2023-04-03T10:31:35;3.05;;;2.00;;
36423;SDS011;22458;45.328;9.514;2023-04-03T10:34:52;4.43;;;1.88;;
36423;SDS011;22458;45.328;9.514;2023-04-03T10:40:15;2.15;;;1.95;;
36423;SDS011;22458;45.328;9.514;2023-04-03T10:50:28;2.92;;;1.80;;
36423;SDS011;22458;45.328;9.514;2023-04-03T10:55:37;2.13;;;1.73;;
36423;SDS011;22458;45.328;9.514;2023-04-03T10:58:26;2.70;;;1.80;;
36423;SDS011;22458;45.328;9.514;2023-04-03T11:00:59;2.65;;;1.70;;
36423;SDS011;22458;45.328;9.514;2023-04-03T11:03:32;1.70;;;1.50;;
36423;SDS011;22458;45.328;9.514;2023-04-03T11:06:09;2.00;;;1.48;;
36423;SDS011;22458;45.328;9.514;2023-04-03T11:11:06;2.25;;;1.65;;
36423;SDS011;22458;45.328;9.514;2023-04-03T11:13:42;1.85;;;1.38;;
36423;SDS011;22458;45.328;9.514;2023-04-03T11:16:20;3.10;;;1.42;;
36423;SDS011;22458;45.328;9.514;2023-04-03T11:18:56;2.53;;;1.48;;
36423;SDS011;22458;45.328;9.514;2023-04-03T11:21:28;2.15;;;1.63;;
36423;SDS011;22458;45.328;9.514;2023-04-03T11:23:59;1.73;;;1.38;;
36423;SDS011;22458;45.328;9.514;2023-04-03T11:26:31;2.40;;;1.33;;
36423;SDS011;22458;45.328;9.514;2023-04-03T11:29:06;3.05;;;1.30;;
36423;SDS011;22458;45.328;9.514;2023-04-03T11:32:01;2.33;;;1.50;;
36423;SDS011;22458;45.328;9.514;2023-04-03T11:34:44;2.47;;;1.45;;
36423;SDS011;22458;45.328;9.514;2023-04-03T11:37:18;2.72;;;1.52;;
36423;SDS011;22458;45.328;9.514;2023-04-03T11:39:57;2.85;;;1.77;;
36423;SDS011;22458;45.328;9.514;2023-04-03T11:42:40;1.90;;;1.27;;
36423;SDS011;22458;45.328;9.514;2023-04-03T11:45:29;2.20;;;1.30;;
36423;SDS011;22458;45.328;9.514;2023-04-03T11:51:00;3.10;;;1.08;;
36423;SDS011;22458;45.328;9.514;2023-04-03T11:53:30;1.30;;;1.08;;
36423;SDS011;22458;45.328;9.514;2023-04-03T11:55:58;1.40;;;1.02;;
36423;SDS011;22458;45.328;9.514;2023-04-03T11:58:30;1.55;;;1.25;;
36423;SDS011;22458;45.328;9.514;2023-04-03T12:01:07;2.40;;;1.50;;
36423;SDS011;22458;45.328;9.514;2023-04-03T12:16:29;1.65;;;0.95;;
36423;SDS011;22458;45.328;9.514;2023-04-03T12:19:00;2.45;;;1.10;;
36423;SDS011;22458;45.328;9.514;2023-04-03T12:24:23;1.08;;;0.85;;
36423;SDS011;22458;45.328;9.514;2023-04-03T12:46:01;3.50;;;1.10;;
36423;SDS011;22458;45.328;9.514;2023-04-03T12:48:32;2.38;;;1.17;;
36423;SDS011;22458;45.328;9.514;2023-04-03T12:51:04;2.03;;;0.90;;
36423;SDS011;22458;45.328;9.514;2023-04-03T12:53:32;1.77;;;1.08;;
36423;SDS011;22458;45.328;9.514;2023-04-03T12:58:46;2.50;;;1.17;;
36423;SDS011;22458;45.328;9.514;2023-04-03T13:01:13;5.70;;;1.20;;
36423;SDS011;22458;45.328;9.514;2023-04-03T13:03:44;1.52;;;0.90;;
36423;SDS011;22458;45.328;9.514;2023-04-03T13:06:45;1.85;;;1.13;;
36423;SDS011;22458;45.328;9.514;2023-04-03T13:09:06;1.40;;;1.15;;
36423;SDS011;22458;45.328;9.514;2023-04-03T13:11:43;1.00;;;0.80;;
36423;SDS011;22458;45.328;9.514;2023-04-03T13:14:20;1.25;;;0.80;;
36423;SDS011;22458;45.328;9.514;2023-04-03T13:19:31;1.23;;;1.13;;
36423;SDS011;22458;45.328;9.514;2023-04-03T13:22:01;1.63;;;0.88;;
36423;SDS011;22458;45.328;9.514;2023-04-03T13:24:30;2.15;;;1.10;;
36423;SDS011;22458;45.328;9.514;2023-04-03T13:27:00;2.85;;;1.20;;
36423;SDS011;22458;45.328;9.514;2023-04-03T13:29:31;3.15;;;0.90;;
36423;SDS011;22458;45.328;9.514;2023-04-03T13:31:59;3.05;;;1.10;;
36423;SDS011;22458;45.328;9.514;2023-04-03T13:34:28;1.40;;;0.98;;
36423;SDS011;22458;45.328;9.514;2023-04-03T13:37:01;1.52;;;0.90;;
36423;SDS011;22458;45.328;9.514;2023-04-03T13:39:37;1.20;;;0.90;;
36423;SDS011;22458;45.328;9.514;2023-04-03T13:42:21;2.22;;;1.10;;
36423;SDS011;22458;45.328;9.514;2023-04-03T13:45:05;2.60;;;1.60;;
36423;SDS011;22458;45.328;9.514;2023-04-03T13:47:41;3.58;;;1.00;;
36423;SDS011;22458;45.328;9.514;2023-04-03T13:52:51;1.20;;;1.10;;
36423;SDS011;22458;45.328;9.514;2023-04-03T13:58:03;1.33;;;1.05;;
36423;SDS011;22458;45.328;9.514;2023-04-03T14:00:48;1.23;;;1.00;;
36423;SDS011;22458;45.328;9.514;2023-04-03T14:03:30;1.48;;;1.10;;
36423;SDS011;22458;45.328;9.514;2023-04-03T14:06:08;2.65;;;0.90;;
36423;SDS011;22458;45.328;9.514;2023-04-03T14:08:37;2.95;;;1.10;;
36423;SDS011;22458;45.328;9.514;2023-04-03T14:11:03;5.93;;;1.40;;
36423;SDS011;22458;45.328;9.514;2023-04-03T14:13:29;1.98;;;1.10;;
36423;SDS011;22458;45.328;9.514;2023-04-03T14:15:56;2.75;;;1.48;;
36423;SDS011;22458;45.328;9.514;2023-04-03T14:18:22;3.38;;;2.35;;
36423;SDS011;22458;45.328;9.514;2023-04-03T14:20:48;4.82;;;3.30;;
36423;SDS011;22458;45.328;9.514;2023-04-03T14:23:14;3.38;;;2.42;;
36423;SDS011;22458;45.328;9.514;2023-04-03T14:25:41;4.05;;;2.53;;
36423;SDS011;22458;45.328;9.514;2023-04-03T14:28:41;4.63;;;2.92;;
36423;SDS011;22458;45.328;9.514;2023-04-03T14:31:00;3.97;;;1.88;;
36423;SDS011;22458;45.328;9.514;2023-04-03T14:33:26;3.05;;;1.73;;
36423;SDS011;22458;45.328;9.514;2023-04-03T14:35:52;4.20;;;1.73;;
36423;SDS011;22458;45.328;9.514;2023-04-03T14:40:52;3.88;;;1.20;;
36423;SDS011;22458;45.328;9.514;2023-04-03T14:43:18;2.25;;;1.27;;
36423;SDS011;22458;45.328;9.514;2023-04-03T14:45:45;2.75;;;1.05;;
36423;SDS011;22458;45.328;9.514;2023-04-03T14:48:16;3.45;;;1.40;;
36423;SDS011;22458;45.328;9.514;2023-04-03T14:50:45;2.28;;;1.27;;
36423;SDS011;22458;45.328;9.514;2023-04-03T14:53:12;5.28;;;1.58;;
36423;SDS011;22458;45.328;9.514;2023-04-03T14:55:40;5.07;;;1.20;;
36423;SDS011;22458;45.328;9.514;2023-04-03T14:58:15;2.03;;;1.27;;
36423;SDS011;22458;45.328;9.514;2023-04-03T15:00:43;3.50;;;1.27;;
36423;SDS011;22458;45.328;9.514;2023-04-03T15:03:12;2.05;;;1.02;;
36423;SDS011;22458;45.328;9.514;2023-04-03T15:05:43;5.20;;;1.20;;
36423;SDS011;22458;45.328;9.514;2023-04-03T15:10:47;1.95;;;1.45;;
36423;SDS011;22458;45.328;9.514;2023-04-03T15:13:13;5.93;;;1.50;;
36423;SDS011;22458;45.328;9.514;2023-04-03T15:15:40;2.13;;;1.50;;
36423;SDS011;22458;45.328;9.514;2023-04-03T15:18:07;3.38;;;1.33;;
36423;SDS011;22458;45.328;9.514;2023-04-03T15:20:39;6.00;;;1.30;;
36423;SDS011;22458;45.328;9.514;2023-04-03T15:23:04;5.32;;;1.63;;
36423;SDS011;22458;45.328;9.514;2023-04-03T15:25:31;1.42;;;1.00;;
36423;SDS011;22458;45.328;9.514;2023-04-03T15:28:00;4.40;;;1.20;;
36423;SDS011;22458;45.328;9.514;2023-04-03T15:30:26;3.22;;;0.98;;
36423;SDS011;22458;45.328;9.514;2023-04-03T15:32:52;2.10;;;1.10;;
36423;SDS011;22458;45.328;9.514;2023-04-03T15:35:18;1.83;;;1.05;;
36423;SDS011;22458;45.328;9.514;2023-04-03T15:37:44;3.97;;;1.20;;
36423;SDS011;22458;45.328;9.514;2023-04-03T15:40:10;6.70;;;1.90;;
36423;SDS011;22458;45.328;9.514;2023-04-03T15:42:37;3.90;;;1.48;;
36423;SDS011;22458;45.328;9.514;2023-04-03T15:45:03;3.83;;;1.90;;
36423;SDS011;22458;45.328;9.514;2023-04-03T15:47:29;2.67;;;1.20;;
36423;SDS011;22458;45.328;9.514;2023-04-03T15:49:55;2.97;;;1.65;;
36423;SDS011;22458;45.328;9.514;2023-04-03T15:52:21;1.50;;;1.02;;
36423;SDS011;22458;45.328;9.514;2023-04-03T15:54:46;3.13;;;1.23;;
36423;SDS011;22458;45.328;9.514;2023-04-03T15:57:12;4.53;;;1.23;;
36423;SDS011;22458;45.328;9.514;2023-04-03T15:59:38;3.03;;;1.15;;
36423;SDS011;22458;45.328;9.514;2023-04-03T16:02:05;2.80;;;1.20;;
36423;SDS011;22458;45.328;9.514;2023-04-03T16:04:32;4.40;;;1.77;;
36423;SDS011;22458;45.328;9.514;2023-04-03T16:07:00;2.28;;;1.50;;
36423;SDS011;22458;45.328;9.514;2023-04-03T16:11:53;3.35;;;1.40;;
36423;SDS011;22458;45.328;9.514;2023-04-03T16:14:18;2.35;;;1.33;;
36423;SDS011;22458;45.328;9.514;2023-04-03T16:16:44;5.22;;;1.70;;
36423;SDS011;22458;45.328;9.514;2023-04-03T16:19:10;2.83;;;1.20;;
36423;SDS011;22458;45.328;9.514;2023-04-03T16:21:36;2.33;;;1.52;;
36423;SDS011;22458;45.328;9.514;2023-04-03T16:24:02;2.85;;;1.15;;
36423;SDS011;22458;45.328;9.514;2023-04-03T16:26:29;2.05;;;1.20;;
36423;SDS011;22458;45.328;9.514;2023-04-03T16:28:54;1.70;;;1.10;;
36423;SDS011;22458;45.328;9.514;2023-04-03T16:31:20;3.33;;;1.38;;
36423;SDS011;22458;45.328;9.514;2023-04-03T16:33:47;3.15;;;1.35;;
36423;SDS011;22458;45.328;9.514;2023-04-03T16:36:13;6.57;;;1.20;;
36423;SDS011;22458;45.328;9.514;2023-04-03T16:38:39;7.82;;;2.35;;
36423;SDS011;22458;45.328;9.514;2023-04-03T16:41:05;4.28;;;1.58;;